sensor_id;sensor_type;location;lat;lon;timestamp;P1;durP1;ratioP1;P2;durP2;ratioP2
30337;SDS011;17143;51.888;5.408;2023-04-01T00:14:37;4.57;;;2.30;;
30337;SDS011;17143;51.888;5.408;2023-04-01T00:29:42;5.13;;;2.80;;
30337;SDS011;17143;51.888;5.408;2023-04-01T00:44:46;6.60;;;3.10;;
30337;SDS011;17143;51.888;5.408;2023-04-01T00:59:52;3.27;;;1.80;;
30337;SDS011;17143;51.888;5.408;2023-04-01T01:14:58;6.63;;;2.30;;
30337;SDS011;17143;51.888;5.408;2023-04-01T01:30:11;8.70;;;2.80;;
30337;SDS011;17143;51.888;5.408;2023-04-01T01:45:22;12.70;;;3.83;;
30337;SDS011;17143;51.888;5.408;2023-04-01T02:00:27;12.33;;;3.57;;
30337;SDS011;17143;51.888;5.408;2023-04-01T02:15:30;7.47;;;2.40;;
30337;SDS011;17143;51.888;5.408;2023-04-01T02:30:39;5.87;;;2.77;;
30337;SDS011;17143;51.888;5.408;2023-04-01T02:45:43;4.17;;;2.00;;
30337;SDS011;17143;51.888;5.408;2023-04-01T03:00:45;6.77;;;2.00;;
30337;SDS011;17143;51.888;5.408;2023-04-01T03:15:47;5.10;;;2.13;;
30337;SDS011;17143;51.888;5.408;2023-04-01T03:30:50;3.80;;;2.20;;
30337;SDS011;17143;51.888;5.408;2023-04-01T03:45:52;5.13;;;2.23;;
30337;SDS011;17143;51.888;5.408;2023-04-01T04:00:54;4.20;;;2.10;;
30337;SDS011;17143;51.888;5.408;2023-04-01T04:15:56;3.70;;;2.60;;
30337;SDS011;17143;51.888;5.408;2023-04-01T04:31:00;3.40;;;2.90;;
30337;SDS011;17143;51.888;5.408;2023-04-01T04:46:05;3.13;;;2.70;;
30337;SDS011;17143;51.888;5.408;2023-04-01T05:01:09;4.63;;;3.40;;
30337;SDS011;17143;51.888;5.408;2023-04-01T05:16:15;5.83;;;3.70;;
30337;SDS011;17143;51.888;5.408;2023-04-01T05:31:19;7.20;;;4.60;;
30337;SDS011;17143;51.888;5.408;2023-04-01T05:46:23;7.53;;;4.83;;
30337;SDS011;17143;51.888;5.408;2023-04-01T06:01:31;7.77;;;5.87;;
30337;SDS011;17143;51.888;5.408;2023-04-01T06:16:35;6.90;;;5.17;;
30337;SDS011;17143;51.888;5.408;2023-04-01T06:47:38;6.17;;;4.83;;
30337;SDS011;17143;51.888;5.408;2023-04-01T07:03:10;11.00;;;5.70;;
30337;SDS011;17143;51.888;5.408;2023-04-01T07:18:21;7.90;;;5.40;;
30337;SDS011;17143;51.888;5.408;2023-04-01T07:33:32;7.20;;;4.27;;
30337;SDS011;17143;51.888;5.408;2023-04-01T07:48:42;5.60;;;3.60;;
30337;SDS011;17143;51.888;5.408;2023-04-01T08:04:04;4.20;;;3.07;;
30337;SDS011;17143;51.888;5.408;2023-04-01T08:19:29;4.30;;;3.50;;
30337;SDS011;17143;51.888;5.408;2023-04-01T08:34:41;4.60;;;3.77;;
30337;SDS011;17143;51.888;5.408;2023-04-01T08:50:00;7.93;;;4.53;;
30337;SDS011;17143;51.888;5.408;2023-04-01T09:05:39;8.43;;;5.23;;
30337;SDS011;17143;51.888;5.408;2023-04-01T09:21:02;9.80;;;5.60;;
30337;SDS011;17143;51.888;5.408;2023-04-01T09:36:19;9.27;;;5.27;;
30337;SDS011;17143;51.888;5.408;2023-04-01T09:51:36;8.87;;;5.60;;
30337;SDS011;17143;51.888;5.408;2023-04-01T10:53:38;6.83;;;5.07;;
30337;SDS011;17143;51.888;5.408;2023-04-01T11:25:20;1.87;;;1.57;;
30337;SDS011;17143;51.888;5.408;2023-04-01T11:41:02;4.07;;;3.13;;
30337;SDS011;17143;51.888;5.408;2023-04-01T11:56:21;4.90;;;3.60;;
30337;SDS011;17143;51.888;5.408;2023-04-01T12:11:34;3.60;;;3.30;;
30337;SDS011;17143;51.888;5.408;2023-04-01T12:26:49;3.40;;;3.03;;
30337;SDS011;17143;51.888;5.408;2023-04-01T12:42:02;2.60;;;2.40;;
30337;SDS011;17143;51.888;5.408;2023-04-01T12:57:13;3.13;;;2.47;;
30337;SDS011;17143;51.888;5.408;2023-04-01T13:12:39;3.00;;;2.70;;
30337;SDS011;17143;51.888;5.408;2023-04-01T13:28:09;2.77;;;2.53;;
30337;SDS011;17143;51.888;5.408;2023-04-01T13:43:18;1.97;;;1.53;;
30337;SDS011;17143;51.888;5.408;2023-04-01T14:13:47;6.00;;;3.63;;
30337;SDS011;17143;51.888;5.408;2023-04-01T14:28:59;3.73;;;3.30;;
30337;SDS011;17143;51.888;5.408;2023-04-01T14:59:48;1.50;;;1.40;;
30337;SDS011;17143;51.888;5.408;2023-04-01T15:14:53;1.37;;;1.23;;
30337;SDS011;17143;51.888;5.408;2023-04-01T15:30:40;1.87;;;1.63;;
30337;SDS011;17143;51.888;5.408;2023-04-01T15:45:58;1.43;;;1.30;;
30337;SDS011;17143;51.888;5.408;2023-04-01T16:01:14;1.67;;;1.57;;
30337;SDS011;17143;51.888;5.408;2023-04-01T16:16:29;1.73;;;1.63;;
30337;SDS011;17143;51.888;5.408;2023-04-01T16:31:43;1.13;;;1.03;;
30337;SDS011;17143;51.888;5.408;2023-04-01T16:46:50;1.07;;;0.97;;
30337;SDS011;17143;51.888;5.408;2023-04-01T17:01:54;1.30;;;1.20;;
30337;SDS011;17143;51.888;5.408;2023-04-01T17:32:37;1.30;;;1.20;;
30337;SDS011;17143;51.888;5.408;2023-04-01T17:47:52;1.60;;;1.50;;
30337;SDS011;17143;51.888;5.408;2023-04-01T18:03:06;1.70;;;1.60;;
30337;SDS011;17143;51.888;5.408;2023-04-01T18:18:25;1.80;;;1.70;;
30337;SDS011;17143;51.888;5.408;2023-04-01T18:33:42;1.83;;;1.73;;
30337;SDS011;17143;51.888;5.408;2023-04-01T18:48:51;2.30;;;2.00;;
30337;SDS011;17143;51.888;5.408;2023-04-01T19:04:03;2.00;;;1.67;;
30337;SDS011;17143;51.888;5.408;2023-04-01T19:19:15;2.07;;;1.87;;
30337;SDS011;17143;51.888;5.408;2023-04-01T19:34:27;2.80;;;2.60;;
30337;SDS011;17143;51.888;5.408;2023-04-01T19:49:41;2.30;;;2.10;;
30337;SDS011;17143;51.888;5.408;2023-04-01T20:04:52;1.80;;;1.70;;
30337;SDS011;17143;51.888;5.408;2023-04-01T20:19:58;1.80;;;1.70;;
30337;SDS011;17143;51.888;5.408;2023-04-01T20:50:48;2.57;;;2.17;;
30337;SDS011;17143;51.888;5.408;2023-04-01T21:06:01;3.40;;;3.10;;
30337;SDS011;17143;51.888;5.408;2023-04-01T21:21:35;4.00;;;3.50;;
30337;SDS011;17143;51.888;5.408;2023-04-01T21:37:01;4.30;;;3.90;;
30337;SDS011;17143;51.888;5.408;2023-04-01T22:07:42;4.10;;;3.60;;
30337;SDS011;17143;51.888;5.408;2023-04-01T22:23:01;2.90;;;2.70;;
30337;SDS011;17143;51.888;5.408;2023-04-01T22:38:18;3.57;;;3.20;;
30337;SDS011;17143;51.888;5.408;2023-04-01T22:53:35;3.70;;;3.30;;
30337;SDS011;17143;51.888;5.408;2023-04-01T23:08:51;4.30;;;3.67;;
30337;SDS011;17143;51.888;5.408;2023-04-01T23:24:02;4.23;;;3.60;;
30337;SDS011;17143;51.888;5.408;2023-04-01T23:39:17;7.73;;;4.17;;
30337;SDS011;17143;51.888;5.408;2023-04-01T23:54:31;4.93;;;4.00;;
